sensor_id;sensor_type;location;lat;lon;timestamp;pressure;altitude;pressure_sealevel;temperature;humidity
75521;BME280;64102;48.628;9.002;2023-03-14T00:00:56;94526.72;;;7.86;100.00
75521;BME280;64102;48.628;9.002;2023-03-14T00:03:22;94530.28;;;7.85;100.00
75521;BME280;64102;48.628;9.002;2023-03-14T00:05:47;94530.28;;;7.85;100.00
75521;BME280;64102;48.628;9.002;2023-03-14T00:08:12;94526.56;;;7.88;100.00
75521;BME280;64102;48.628;9.002;2023-03-14T00:10:38;94520.97;;;7.84;100.00
75521;BME280;64102;48.628;9.002;2023-03-14T00:13:03;94521.44;;;7.88;100.00
75521;BME280;64102;48.628;9.002;2023-03-14T00:15:29;94517.09;;;7.88;100.00
75521;BME280;64102;48.628;9.002;2023-03-14T00:17:54;94511.16;;;7.88;100.00
75521;BME280;64102;48.628;9.002;2023-03-14T00:20:19;94507.63;;;7.89;100.00
75521;BME280;64102;48.628;9.002;2023-03-14T00:22:45;94497.38;;;7.89;100.00
75521;BME280;64102;48.628;9.002;2023-03-14T00:25:11;94502.16;;;7.92;100.00
75521;BME280;64102;48.628;9.002;2023-03-14T00:27:37;94490.47;;;7.89;100.00
75521;BME280;64102;48.628;9.002;2023-03-14T00:30:03;94493.19;;;7.88;100.00
75521;BME280;64102;48.628;9.002;2023-03-14T00:32:29;94500.88;;;7.96;100.00
75521;BME280;64102;48.628;9.002;2023-03-14T00:34:54;94508.78;;;7.94;100.00
75521;BME280;64102;48.628;9.002;2023-03-14T00:37:20;94506.81;;;7.96;100.00
75521;BME280;64102;48.628;9.002;2023-03-14T00:39:45;94497.50;;;7.95;100.00
75521;BME280;64102;48.628;9.002;2023-03-14T00:42:10;94505.72;;;7.99;100.00
75521;BME280;64102;48.628;9.002;2023-03-14T00:44:36;94510.19;;;7.97;100.00
75521;BME280;64102;48.628;9.002;2023-03-14T00:47:01;94506.81;;;7.96;100.00
75521;BME280;64102;48.628;9.002;2023-03-14T00:49:26;94514.19;;;7.99;100.00
75521;BME280;64102;48.628;9.002;2023-03-14T00:51:52;94524.31;;;8.01;100.00
75521;BME280;64102;48.628;9.002;2023-03-14T00:54:20;94519.50;;;7.98;100.00
75521;BME280;64102;48.628;9.002;2023-03-14T00:56:46;94529.47;;;7.93;100.00
75521;BME280;64102;48.628;9.002;2023-03-14T00:59:11;94527.84;;;7.92;100.00
75521;BME280;64102;48.628;9.002;2023-03-14T01:01:37;94529.78;;;7.90;100.00
75521;BME280;64102;48.628;9.002;2023-03-14T01:04:03;94520.47;;;7.89;100.00
75521;BME280;64102;48.628;9.002;2023-03-14T01:06:28;94518.53;;;7.91;100.00
75521;BME280;64102;48.628;9.002;2023-03-14T01:08:55;94528.00;;;7.90;100.00
75521;BME280;64102;48.628;9.002;2023-03-14T01:11:23;94519.34;;;7.91;100.00
75521;BME280;64102;48.628;9.002;2023-03-14T01:13:49;94519.66;;;7.96;100.00
75521;BME280;64102;48.628;9.002;2023-03-14T01:16:16;94510.53;;;8.02;99.45
75521;BME280;64102;48.628;9.002;2023-03-14T01:18:43;94495.44;;;7.99;99.51
75521;BME280;64102;48.628;9.002;2023-03-14T01:21:15;94485.63;;;8.02;99.08
75521;BME280;64102;48.628;9.002;2023-03-14T01:23:41;94479.84;;;8.08;98.15
75521;BME280;64102;48.628;9.002;2023-03-14T01:26:11;94475.19;;;8.12;96.94
75521;BME280;64102;48.628;9.002;2023-03-14T01:28:36;94486.25;;;8.13;96.87
75521;BME280;64102;48.628;9.002;2023-03-14T01:31:08;94480.34;;;8.12;97.06
75521;BME280;64102;48.628;9.002;2023-03-14T01:33:33;94470.69;;;8.06;97.68
75521;BME280;64102;48.628;9.002;2023-03-14T01:35:59;94471.03;;;8.03;98.13
75521;BME280;64102;48.628;9.002;2023-03-14T01:38:28;94458.19;;;7.95;99.22
75521;BME280;64102;48.628;9.002;2023-03-14T01:40:53;94454.19;;;7.92;99.59
75521;BME280;64102;48.628;9.002;2023-03-14T01:43:19;94444.41;;;7.88;99.68
75521;BME280;64102;48.628;9.002;2023-03-14T01:48:25;94438.13;;;7.82;100.00
75521;BME280;64102;48.628;9.002;2023-03-14T01:50:51;94434.28;;;7.78;100.00
75521;BME280;64102;48.628;9.002;2023-03-14T01:53:16;94429.34;;;7.77;100.00
75521;BME280;64102;48.628;9.002;2023-03-14T01:55:47;94432.06;;;7.75;100.00
75521;BME280;64102;48.628;9.002;2023-03-14T01:58:13;94449.56;;;7.72;100.00
75521;BME280;64102;48.628;9.002;2023-03-14T02:00:40;94445.69;;;7.68;100.00
75521;BME280;64102;48.628;9.002;2023-03-14T02:03:11;94441.34;;;7.68;100.00
75521;BME280;64102;48.628;9.002;2023-03-14T02:05:40;94444.88;;;7.75;100.00
75521;BME280;64102;48.628;9.002;2023-03-14T02:08:11;94443.59;;;7.71;100.00
75521;BME280;64102;48.628;9.002;2023-03-14T02:10:41;94439.44;;;7.70;100.00
75521;BME280;64102;48.628;9.002;2023-03-14T02:13:08;94437.66;;;7.71;100.00
75521;BME280;64102;48.628;9.002;2023-03-14T02:15:34;94437.00;;;7.69;100.00
75521;BME280;64102;48.628;9.002;2023-03-14T02:18:02;94442.47;;;7.65;100.00
75521;BME280;64102;48.628;9.002;2023-03-14T02:20:33;94430.59;;;7.64;100.00
75521;BME280;64102;48.628;9.002;2023-03-14T02:23:02;94429.97;;;7.62;100.00
75521;BME280;64102;48.628;9.002;2023-03-14T02:28:14;94410.88;;;7.57;100.00
75521;BME280;64102;48.628;9.002;2023-03-14T02:30:40;94407.97;;;7.60;100.00
75521;BME280;64102;48.628;9.002;2023-03-14T02:33:11;94409.91;;;7.66;100.00
75521;BME280;64102;48.628;9.002;2023-03-14T02:35:49;94405.25;;;7.61;100.00
75521;BME280;64102;48.628;9.002;2023-03-14T02:38:23;94402.53;;;7.63;100.00
75521;BME280;64102;48.628;9.002;2023-03-14T02:40:50;94381.69;;;7.66;99.65
75521;BME280;64102;48.628;9.002;2023-03-14T02:43:16;94387.75;;;7.65;99.04
75521;BME280;64102;48.628;9.002;2023-03-14T02:45:45;94389.69;;;7.71;97.81
75521;BME280;64102;48.628;9.002;2023-03-14T02:48:15;94361.13;;;7.66;98.50
75521;BME280;64102;48.628;9.002;2023-03-14T02:50:41;94360.50;;;7.72;96.23
75521;BME280;64102;48.628;9.002;2023-03-14T02:53:08;94358.09;;;7.71;96.26
75521;BME280;64102;48.628;9.002;2023-03-14T02:55:33;94359.50;;;7.73;94.64
75521;BME280;64102;48.628;9.002;2023-03-14T02:57:58;94360.66;;;7.71;94.96
75521;BME280;64102;48.628;9.002;2023-03-14T03:00:24;94367.88;;;7.67;93.97
75521;BME280;64102;48.628;9.002;2023-03-14T03:02:49;94360.81;;;7.69;94.21
75521;BME280;64102;48.628;9.002;2023-03-14T03:05:15;94355.84;;;7.68;93.99
75521;BME280;64102;48.628;9.002;2023-03-14T03:07:40;94347.50;;;7.65;93.28
75521;BME280;64102;48.628;9.002;2023-03-14T03:10:06;94341.91;;;7.62;93.09
75521;BME280;64102;48.628;9.002;2023-03-14T03:12:31;94342.50;;;7.64;91.97
75521;BME280;64102;48.628;9.002;2023-03-14T03:14:57;94318.59;;;7.63;91.24
75521;BME280;64102;48.628;9.002;2023-03-14T03:17:22;94331.94;;;7.59;91.38
75521;BME280;64102;48.628;9.002;2023-03-14T03:19:48;94323.44;;;7.50;91.88
75521;BME280;64102;48.628;9.002;2023-03-14T03:22:13;94322.66;;;7.58;89.34
75521;BME280;64102;48.628;9.002;2023-03-14T03:24:38;94318.63;;;7.55;88.92
75521;BME280;64102;48.628;9.002;2023-03-14T03:27:03;94316.56;;;7.51;88.78
75521;BME280;64102;48.628;9.002;2023-03-14T03:29:29;94308.22;;;7.49;87.74
75521;BME280;64102;48.628;9.002;2023-03-14T03:31:55;94307.25;;;7.42;88.88
75521;BME280;64102;48.628;9.002;2023-03-14T03:34:20;94297.66;;;7.36;88.72
75521;BME280;64102;48.628;9.002;2023-03-14T03:36:45;94287.56;;;7.34;88.69
75521;BME280;64102;48.628;9.002;2023-03-14T03:39:11;94293.66;;;7.33;87.81
75521;BME280;64102;48.628;9.002;2023-03-14T03:41:36;94286.91;;;7.32;87.84
75521;BME280;64102;48.628;9.002;2023-03-14T03:44:01;94280.00;;;7.33;87.99
75521;BME280;64102;48.628;9.002;2023-03-14T03:46:27;94285.94;;;7.33;86.92
75521;BME280;64102;48.628;9.002;2023-03-14T03:48:57;94267.00;;;7.42;84.77
75521;BME280;64102;48.628;9.002;2023-03-14T03:51:22;94273.44;;;7.38;85.18
75521;BME280;64102;48.628;9.002;2023-03-14T03:53:48;94277.44;;;7.33;86.24
75521;BME280;64102;48.628;9.002;2023-03-14T03:56:13;94276.19;;;7.29;86.32
75521;BME280;64102;48.628;9.002;2023-03-14T03:58:38;94279.41;;;7.23;86.32
75521;BME280;64102;48.628;9.002;2023-03-14T04:01:05;94279.41;;;7.23;86.28
75521;BME280;64102;48.628;9.002;2023-03-14T04:03:32;94257.72;;;7.33;84.41
75521;BME280;64102;48.628;9.002;2023-03-14T04:06:07;94274.72;;;7.34;84.41
75521;BME280;64102;48.628;9.002;2023-03-14T04:08:33;94264.94;;;7.38;84.09
75521;BME280;64102;48.628;9.002;2023-03-14T04:10:59;94275.66;;;7.41;83.65
75521;BME280;64102;48.628;9.002;2023-03-14T04:13:26;94283.84;;;7.37;83.96
75521;BME280;64102;48.628;9.002;2023-03-14T04:16:01;94283.06;;;7.36;84.25
75521;BME280;64102;48.628;9.002;2023-03-14T04:18:27;94279.41;;;7.31;84.65
75521;BME280;64102;48.628;9.002;2023-03-14T04:20:53;94273.94;;;7.26;84.76
75521;BME280;64102;48.628;9.002;2023-03-14T04:23:19;94279.06;;;7.34;83.85
75521;BME280;64102;48.628;9.002;2023-03-14T04:25:44;94269.28;;;7.29;84.31
75521;BME280;64102;48.628;9.002;2023-03-14T04:28:09;94269.44;;;7.28;84.43
75521;BME280;64102;48.628;9.002;2023-03-14T04:30:35;94265.28;;;7.27;84.29
75521;BME280;64102;48.628;9.002;2023-03-14T04:33:00;94267.84;;;7.27;84.04
75521;BME280;64102;48.628;9.002;2023-03-14T04:35:25;94254.06;;;7.19;85.12
75521;BME280;64102;48.628;9.002;2023-03-14T04:37:51;94262.09;;;7.16;84.94
75521;BME280;64102;48.628;9.002;2023-03-14T04:40:17;94256.63;;;7.19;84.31
75521;BME280;64102;48.628;9.002;2023-03-14T04:42:43;94250.22;;;7.15;84.42
75521;BME280;64102;48.628;9.002;2023-03-14T04:45:08;94244.94;;;7.17;84.60
75521;BME280;64102;48.628;9.002;2023-03-14T04:47:34;94244.63;;;7.12;85.03
75521;BME280;64102;48.628;9.002;2023-03-14T04:49:59;94238.56;;;7.05;85.26
75521;BME280;64102;48.628;9.002;2023-03-14T04:52:26;94238.69;;;7.11;83.89
75521;BME280;64102;48.628;9.002;2023-03-14T04:54:52;94227.31;;;7.14;83.89
75521;BME280;64102;48.628;9.002;2023-03-14T04:57:17;94223.94;;;7.13;84.30
75521;BME280;64102;48.628;9.002;2023-03-14T04:59:43;94222.97;;;7.14;83.49
75521;BME280;64102;48.628;9.002;2023-03-14T05:02:08;94205.50;;;7.10;84.70
75521;BME280;64102;48.628;9.002;2023-03-14T05:04:34;94204.72;;;7.09;83.93
75521;BME280;64102;48.628;9.002;2023-03-14T05:07:00;94205.03;;;7.06;84.47
75521;BME280;64102;48.628;9.002;2023-03-14T05:09:25;94212.25;;;7.11;83.76
75521;BME280;64102;48.628;9.002;2023-03-14T05:11:51;94202.81;;;7.03;84.43
75521;BME280;64102;48.628;9.002;2023-03-14T05:14:16;94193.03;;;6.99;84.53
75521;BME280;64102;48.628;9.002;2023-03-14T05:16:41;94187.75;;;7.00;84.60
75521;BME280;64102;48.628;9.002;2023-03-14T05:19:07;94196.91;;;6.95;84.94
75521;BME280;64102;48.628;9.002;2023-03-14T05:21:32;94197.22;;;7.00;84.22
75521;BME280;64102;48.628;9.002;2023-03-14T05:23:57;94194.16;;;7.04;83.82
75521;BME280;64102;48.628;9.002;2023-03-14T05:26:23;94190.63;;;7.13;83.11
75521;BME280;64102;48.628;9.002;2023-03-14T05:28:48;94187.88;;;7.15;83.35
75521;BME280;64102;48.628;9.002;2023-03-14T05:31:14;94195.06;;;7.19;83.08
75521;BME280;64102;48.628;9.002;2023-03-14T05:33:40;94187.88;;;7.23;82.78
75521;BME280;64102;48.628;9.002;2023-03-14T05:36:05;94180.00;;;7.16;83.12
75521;BME280;64102;48.628;9.002;2023-03-14T05:38:31;94179.53;;;7.13;83.21
75521;BME280;64102;48.628;9.002;2023-03-14T05:40:56;94170.91;;;7.14;82.83
75521;BME280;64102;48.628;9.002;2023-03-14T05:43:22;94158.72;;;7.08;82.95
75521;BME280;64102;48.628;9.002;2023-03-14T05:45:47;94152.28;;;7.12;82.60
75521;BME280;64102;48.628;9.002;2023-03-14T05:48:12;94156.16;;;7.08;82.83
75521;BME280;64102;48.628;9.002;2023-03-14T05:50:38;94148.31;;;7.09;82.37
75521;BME280;64102;48.628;9.002;2023-03-14T05:53:03;94137.06;;;7.10;82.58
75521;BME280;64102;48.628;9.002;2023-03-14T05:55:29;94140.25;;;7.20;81.30
75521;BME280;64102;48.628;9.002;2023-03-14T05:57:54;94148.59;;;7.23;81.06
75521;BME280;64102;48.628;9.002;2023-03-14T06:00:20;94151.78;;;7.25;81.31
75521;BME280;64102;48.628;9.002;2023-03-14T06:02:46;94159.13;;;7.28;81.30
75521;BME280;64102;48.628;9.002;2023-03-14T06:05:11;94158.00;;;7.30;81.06
75521;BME280;64102;48.628;9.002;2023-03-14T06:07:37;94166.81;;;7.36;80.23
75521;BME280;64102;48.628;9.002;2023-03-14T06:10:03;94162.50;;;7.36;79.99
75521;BME280;64102;48.628;9.002;2023-03-14T06:12:28;94163.88;;;7.47;79.45
75521;BME280;64102;48.628;9.002;2023-03-14T06:14:53;94157.78;;;7.48;79.71
75521;BME280;64102;48.628;9.002;2023-03-14T06:17:19;94153.44;;;7.48;79.59
75521;BME280;64102;48.628;9.002;2023-03-14T06:19:44;94159.38;;;7.49;79.59
75521;BME280;64102;48.628;9.002;2023-03-14T06:22:09;94165.63;;;7.46;80.06
75521;BME280;64102;48.628;9.002;2023-03-14T06:24:35;94162.56;;;7.51;79.54
75521;BME280;64102;48.628;9.002;2023-03-14T06:27:00;94159.50;;;7.55;79.02
75521;BME280;64102;48.628;9.002;2023-03-14T06:29:28;94152.25;;;7.67;77.96
75521;BME280;64102;48.628;9.002;2023-03-14T06:31:54;94155.88;;;7.73;78.00
75521;BME280;64102;48.628;9.002;2023-03-14T06:34:19;94143.53;;;7.76;77.84
75521;BME280;64102;48.628;9.002;2023-03-14T06:36:44;94147.16;;;7.90;77.18
75521;BME280;64102;48.628;9.002;2023-03-14T06:39:10;94150.69;;;8.12;76.38
75521;BME280;64102;48.628;9.002;2023-03-14T06:41:35;94140.97;;;8.22;75.39
75521;BME280;64102;48.628;9.002;2023-03-14T06:44:00;94134.25;;;8.21;75.95
75521;BME280;64102;48.628;9.002;2023-03-14T06:46:26;94125.75;;;8.20;75.48
75521;BME280;64102;48.628;9.002;2023-03-14T06:48:52;94121.88;;;8.47;73.33
75521;BME280;64102;48.628;9.002;2023-03-14T06:51:17;94127.41;;;9.61;69.52
75521;BME280;64102;48.628;9.002;2023-03-14T06:53:42;94129.53;;;9.58;69.50
75521;BME280;64102;48.628;9.002;2023-03-14T06:56:11;94142.78;;;9.11;70.75
75521;BME280;64102;48.628;9.002;2023-03-14T06:58:39;94151.56;;;8.87;72.19
75521;BME280;64102;48.628;9.002;2023-03-14T07:01:05;94148.53;;;8.98;71.34
75521;BME280;64102;48.628;9.002;2023-03-14T07:03:31;94147.03;;;9.33;70.12
75521;BME280;64102;48.628;9.002;2023-03-14T07:05:56;94152.19;;;9.33;70.73
75521;BME280;64102;48.628;9.002;2023-03-14T07:08:22;94155.13;;;9.30;69.95
75521;BME280;64102;48.628;9.002;2023-03-14T07:10:47;94155.34;;;10.78;64.92
75521;BME280;64102;48.628;9.002;2023-03-14T07:13:12;94156.28;;;10.99;62.46
75521;BME280;64102;48.628;9.002;2023-03-14T07:15:38;94158.53;;;11.43;61.42
75521;BME280;64102;48.628;9.002;2023-03-14T07:18:03;94165.38;;;11.57;60.30
75521;BME280;64102;48.628;9.002;2023-03-14T07:20:29;94156.53;;;11.73;61.04
75521;BME280;64102;48.628;9.002;2023-03-14T07:22:57;94154.06;;;11.99;59.34
75521;BME280;64102;48.628;9.002;2023-03-14T07:25:24;94156.97;;;12.70;56.99
75521;BME280;64102;48.628;9.002;2023-03-14T07:27:50;94168.72;;;11.92;59.81
75521;BME280;64102;48.628;9.002;2023-03-14T07:30:16;94165.31;;;11.44;60.53
75521;BME280;64102;48.628;9.002;2023-03-14T07:32:41;94173.03;;;11.44;60.91
75521;BME280;64102;48.628;9.002;2023-03-14T07:35:07;94174.81;;;11.43;60.53
75521;BME280;64102;48.628;9.002;2023-03-14T07:37:33;94183.13;;;11.32;61.72
75521;BME280;64102;48.628;9.002;2023-03-14T07:39:58;94185.63;;;10.91;61.78
75521;BME280;64102;48.628;9.002;2023-03-14T07:42:23;94188.81;;;10.93;62.28
75521;BME280;64102;48.628;9.002;2023-03-14T07:44:49;94186.88;;;12.05;58.80
75521;BME280;64102;48.628;9.002;2023-03-14T07:47:14;94196.38;;;12.91;56.33
75521;BME280;64102;48.628;9.002;2023-03-14T07:49:39;94191.56;;;12.36;58.13
75521;BME280;64102;48.628;9.002;2023-03-14T07:52:05;94199.38;;;11.60;59.93
75521;BME280;64102;48.628;9.002;2023-03-14T07:54:31;94199.28;;;11.47;59.80
75521;BME280;64102;48.628;9.002;2023-03-14T07:56:56;94192.72;;;11.73;58.19
75521;BME280;64102;48.628;9.002;2023-03-14T07:59:25;94203.13;;;12.73;55.64
75521;BME280;64102;48.628;9.002;2023-03-14T08:01:51;94206.09;;;12.43;56.14
75521;BME280;64102;48.628;9.002;2023-03-14T08:04:16;94210.81;;;11.73;59.38
75521;BME280;64102;48.628;9.002;2023-03-14T08:06:41;94209.50;;;11.28;59.73
75521;BME280;64102;48.628;9.002;2023-03-14T08:09:07;94203.75;;;11.60;59.32
75521;BME280;64102;48.628;9.002;2023-03-14T08:11:32;94195.75;;;12.56;56.49
75521;BME280;64102;48.628;9.002;2023-03-14T08:13:58;94198.41;;;13.02;54.71
75521;BME280;64102;48.628;9.002;2023-03-14T08:16:23;94196.38;;;12.91;53.64
75521;BME280;64102;48.628;9.002;2023-03-14T08:18:48;94205.34;;;12.63;54.37
75521;BME280;64102;48.628;9.002;2023-03-14T08:21:14;94205.44;;;13.93;50.71
75521;BME280;64102;48.628;9.002;2023-03-14T08:23:39;94190.00;;;13.47;51.61
75521;BME280;64102;48.628;9.002;2023-03-14T08:26:05;94182.09;;;14.75;48.18
75521;BME280;64102;48.628;9.002;2023-03-14T08:28:30;94208.41;;;14.47;49.00
75521;BME280;64102;48.628;9.002;2023-03-14T08:30:59;94207.13;;;12.62;53.39
75521;BME280;64102;48.628;9.002;2023-03-14T08:33:26;94196.91;;;11.74;56.19
75521;BME280;64102;48.628;9.002;2023-03-14T08:35:52;94214.69;;;11.34;57.31
75521;BME280;64102;48.628;9.002;2023-03-14T08:38:18;94229.75;;;11.24;58.82
75521;BME280;64102;48.628;9.002;2023-03-14T08:40:43;94237.50;;;10.75;60.84
75521;BME280;64102;48.628;9.002;2023-03-14T08:43:09;94228.16;;;10.53;62.43
75521;BME280;64102;48.628;9.002;2023-03-14T08:45:34;94221.63;;;10.57;62.84
75521;BME280;64102;48.628;9.002;2023-03-14T08:47:59;94238.56;;;10.45;64.58
75521;BME280;64102;48.628;9.002;2023-03-14T08:50:25;94237.47;;;10.18;66.75
75521;BME280;64102;48.628;9.002;2023-03-14T08:52:51;94239.81;;;9.98;67.38
75521;BME280;64102;48.628;9.002;2023-03-14T08:55:16;94236.63;;;9.67;70.00
75521;BME280;64102;48.628;9.002;2023-03-14T08:57:41;94251.00;;;9.47;69.06
75521;BME280;64102;48.628;9.002;2023-03-14T09:00:07;94262.53;;;9.36;71.99
75521;BME280;64102;48.628;9.002;2023-03-14T09:02:37;94266.78;;;9.29;71.46
75521;BME280;64102;48.628;9.002;2023-03-14T09:05:04;94258.72;;;9.32;70.49
75521;BME280;64102;48.628;9.002;2023-03-14T09:07:29;94251.53;;;9.27;71.80
75521;BME280;64102;48.628;9.002;2023-03-14T09:09:54;94251.13;;;9.16;71.10
75521;BME280;64102;48.628;9.002;2023-03-14T09:12:20;94253.91;;;9.14;70.77
75521;BME280;64102;48.628;9.002;2023-03-14T09:14:45;94252.78;;;9.31;71.55
75521;BME280;64102;48.628;9.002;2023-03-14T09:17:11;94259.00;;;9.37;70.17
75521;BME280;64102;48.628;9.002;2023-03-14T09:19:36;94251.72;;;9.40;70.12
75521;BME280;64102;48.628;9.002;2023-03-14T09:22:02;94258.91;;;9.45;70.40
75521;BME280;64102;48.628;9.002;2023-03-14T09:24:27;94247.44;;;9.48;68.40
75521;BME280;64102;48.628;9.002;2023-03-14T09:26:54;94260.34;;;9.62;69.67
75521;BME280;64102;48.628;9.002;2023-03-14T09:29:20;94259.63;;;9.68;67.80
75521;BME280;64102;48.628;9.002;2023-03-14T09:31:46;94251.19;;;9.74;67.50
75521;BME280;64102;48.628;9.002;2023-03-14T09:34:11;94251.44;;;9.79;67.38
75521;BME280;64102;48.628;9.002;2023-03-14T09:36:36;94286.56;;;9.95;66.81
75521;BME280;64102;48.628;9.002;2023-03-14T09:39:03;94270.44;;;10.22;66.55
75521;BME280;64102;48.628;9.002;2023-03-14T09:41:31;94278.09;;;10.16;66.28
75521;BME280;64102;48.628;9.002;2023-03-14T09:44:09;94280.38;;;10.11;67.63
75521;BME280;64102;48.628;9.002;2023-03-14T09:46:38;94276.47;;;10.15;67.16
75521;BME280;64102;48.628;9.002;2023-03-14T09:49:20;94281.56;;;10.23;67.14
75521;BME280;64102;48.628;9.002;2023-03-14T09:51:49;94276.13;;;10.32;66.89
75521;BME280;64102;48.628;9.002;2023-03-14T09:54:36;94280.16;;;10.20;66.01
75521;BME280;64102;48.628;9.002;2023-03-14T09:57:05;94266.78;;;10.31;65.12
75521;BME280;64102;48.628;9.002;2023-03-14T09:59:31;94281.50;;;10.52;66.19
75521;BME280;64102;48.628;9.002;2023-03-14T10:02:01;94290.00;;;11.10;64.21
75521;BME280;64102;48.628;9.002;2023-03-14T10:04:28;94276.97;;;10.97;62.93
75521;BME280;64102;48.628;9.002;2023-03-14T10:06:55;94285.91;;;14.30;52.69
75521;BME280;64102;48.628;9.002;2023-03-14T10:09:22;94281.84;;;13.90;53.83
75521;BME280;64102;48.628;9.002;2023-03-14T10:11:52;94280.69;;;13.14;55.75
75521;BME280;64102;48.628;9.002;2023-03-14T10:14:32;94272.09;;;12.93;56.84
75521;BME280;64102;48.628;9.002;2023-03-14T10:17:06;94266.75;;;12.34;57.62
75521;BME280;64102;48.628;9.002;2023-03-14T10:19:32;94277.00;;;11.52;59.70
75521;BME280;64102;48.628;9.002;2023-03-14T10:22:01;94281.50;;;11.16;61.16
75521;BME280;64102;48.628;9.002;2023-03-14T10:24:34;94285.00;;;11.08;61.04
75521;BME280;64102;48.628;9.002;2023-03-14T10:27:05;94291.03;;;10.94;61.37
75521;BME280;64102;48.628;9.002;2023-03-14T10:29:34;94288.66;;;10.93;62.27
75521;BME280;64102;48.628;9.002;2023-03-14T10:32:03;94281.78;;;10.78;62.56
75521;BME280;64102;48.628;9.002;2023-03-14T10:34:32;94282.03;;;10.84;62.97
75521;BME280;64102;48.628;9.002;2023-03-14T10:37:05;94289.25;;;10.95;62.95
75521;BME280;64102;48.628;9.002;2023-03-14T10:39:51;94283.03;;;10.89;62.36
75521;BME280;64102;48.628;9.002;2023-03-14T10:44:46;94289.94;;;10.61;63.89
75521;BME280;64102;48.628;9.002;2023-03-14T10:47:22;94276.09;;;10.47;65.45
75521;BME280;64102;48.628;9.002;2023-03-14T10:49:48;94272.81;;;10.39;65.53
75521;BME280;64102;48.628;9.002;2023-03-14T10:52:15;94281.56;;;10.23;66.00
75521;BME280;64102;48.628;9.002;2023-03-14T10:54:47;94285.03;;;10.30;66.93
75521;BME280;64102;48.628;9.002;2023-03-14T10:57:13;94290.19;;;10.30;66.65
75521;BME280;64102;48.628;9.002;2023-03-14T10:59:41;94287.84;;;10.35;67.38
75521;BME280;64102;48.628;9.002;2023-03-14T11:09:56;94309.81;;;10.02;70.71
75521;BME280;64102;48.628;9.002;2023-03-14T11:15:04;94313.28;;;9.79;70.61
75521;BME280;64102;48.628;9.002;2023-03-14T11:17:37;94317.38;;;9.88;71.98
75521;BME280;64102;48.628;9.002;2023-03-14T11:20:23;94320.22;;;9.94;71.66
75521;BME280;64102;48.628;9.002;2023-03-14T11:22:59;94318.34;;;9.73;71.90
75521;BME280;64102;48.628;9.002;2023-03-14T11:30:53;94327.22;;;8.95;77.41
75521;BME280;64102;48.628;9.002;2023-03-14T11:33:27;94342.34;;;8.90;78.32
75521;BME280;64102;48.628;9.002;2023-03-14T11:36:03;94334.75;;;8.97;77.93
75521;BME280;64102;48.628;9.002;2023-03-14T11:38:48;94342.56;;;9.04;77.01
75521;BME280;64102;48.628;9.002;2023-03-14T11:43:54;94354.47;;;9.27;76.17
75521;BME280;64102;48.628;9.002;2023-03-14T11:46:27;94347.88;;;9.25;75.75
75521;BME280;64102;48.628;9.002;2023-03-14T11:51:39;94359.50;;;9.21;76.34
75521;BME280;64102;48.628;9.002;2023-03-14T11:54:22;94361.22;;;9.06;78.92
75521;BME280;64102;48.628;9.002;2023-03-14T11:56:55;94364.84;;;8.88;80.31
75521;BME280;64102;48.628;9.002;2023-03-14T12:02:37;94378.91;;;8.78;81.84
75521;BME280;64102;48.628;9.002;2023-03-14T12:10:43;94409.25;;;8.51;81.55
75521;BME280;64102;48.628;9.002;2023-03-14T12:13:11;94412.84;;;8.73;82.44
75521;BME280;64102;48.628;9.002;2023-03-14T12:15:56;94417.34;;;9.02;78.44
75521;BME280;64102;48.628;9.002;2023-03-14T12:18:32;94438.03;;;9.17;77.97
75521;BME280;64102;48.628;9.002;2023-03-14T12:21:09;94441.06;;;8.89;75.95
75521;BME280;64102;48.628;9.002;2023-03-14T12:23:50;94430.34;;;8.78;74.67
75521;BME280;64102;48.628;9.002;2023-03-14T12:26:27;94446.28;;;9.04;73.37
75521;BME280;64102;48.628;9.002;2023-03-14T12:42:11;94486.53;;;12.49;44.33
75521;BME280;64102;48.628;9.002;2023-03-14T12:44:41;94502.78;;;12.43;45.05
75521;BME280;64102;48.628;9.002;2023-03-14T12:49:49;94518.69;;;11.91;47.02
75521;BME280;64102;48.628;9.002;2023-03-14T12:52:54;94530.06;;;11.10;50.12
75521;BME280;64102;48.628;9.002;2023-03-14T13:01:06;94551.72;;;11.59;50.20
75521;BME280;64102;48.628;9.002;2023-03-14T13:03:57;94560.34;;;12.02;47.54
75521;BME280;64102;48.628;9.002;2023-03-14T13:11:58;94582.06;;;12.08;44.13
75521;BME280;64102;48.628;9.002;2023-03-14T13:14:28;94603.16;;;10.21;48.44
75521;BME280;64102;48.628;9.002;2023-03-14T13:16:54;94609.25;;;10.65;49.32
75521;BME280;64102;48.628;9.002;2023-03-14T13:19:23;94626.69;;;9.95;50.41
75521;BME280;64102;48.628;9.002;2023-03-14T13:21:50;94630.88;;;9.57;50.81
75521;BME280;64102;48.628;9.002;2023-03-14T13:24:26;94643.16;;;8.92;54.10
75521;BME280;64102;48.628;9.002;2023-03-14T13:26:54;94666.34;;;8.43;54.71
75521;BME280;64102;48.628;9.002;2023-03-14T13:31:46;94674.91;;;8.02;55.06
75521;BME280;64102;48.628;9.002;2023-03-14T13:34:12;94691.59;;;7.98;55.03
75521;BME280;64102;48.628;9.002;2023-03-14T13:36:38;94700.06;;;7.82;54.50
75521;BME280;64102;48.628;9.002;2023-03-14T13:39:22;94697.78;;;7.71;53.92
75521;BME280;64102;48.628;9.002;2023-03-14T13:41:51;94713.75;;;7.49;54.82
75521;BME280;64102;48.628;9.002;2023-03-14T13:46:48;94725.56;;;7.42;55.28
75521;BME280;64102;48.628;9.002;2023-03-14T13:49:25;94743.72;;;7.48;55.71
75521;BME280;64102;48.628;9.002;2023-03-14T13:51:51;94748.47;;;7.35;53.87
75521;BME280;64102;48.628;9.002;2023-03-14T13:54:18;94751.28;;;7.24;53.76
75521;BME280;64102;48.628;9.002;2023-03-14T13:56:45;94763.38;;;7.32;53.47
75521;BME280;64102;48.628;9.002;2023-03-14T13:59:25;94773.38;;;7.43;53.09
75521;BME280;64102;48.628;9.002;2023-03-14T14:01:51;94781.28;;;7.49;53.12
75521;BME280;64102;48.628;9.002;2023-03-14T14:04:19;94798.53;;;7.39;53.18
75521;BME280;64102;48.628;9.002;2023-03-14T14:06:56;94779.81;;;7.21;52.53
75521;BME280;64102;48.628;9.002;2023-03-14T14:09:25;94789.22;;;7.38;52.40
75521;BME280;64102;48.628;9.002;2023-03-14T14:12:29;94797.06;;;7.37;52.80
75521;BME280;64102;48.628;9.002;2023-03-14T14:14:49;94813.94;;;7.39;52.11
75521;BME280;64102;48.628;9.002;2023-03-14T14:17:23;94825.13;;;7.38;50.30
75521;BME280;64102;48.628;9.002;2023-03-14T14:19:49;94812.16;;;7.40;50.00